Terminal Aerodrome Forecast
Issued by NWS Burlington, VT

Home | Current Version | Previous Version | Text Only | Print | Product List | Glossary On
Versions: 1 2 3 4 5 6 7 8 9 10 11 12 13 14 15 16 17 18
000
FTUS41 KBTV 271530 AAD
TAFBTV
TAF AMD
KBTV 271530Z 2716/2812 36012G25KT 4SM -SN BR SCT025 OVC070
     FM271615 36012G26KT 1 1/2SM -SN OVC030
      TEMPO 2717/2721 3/4SM -SN BR OVC015
     FM272100 36017G25KT 5SM -SN OVC030
     FM280300 35011G19KT P6SM -SN OVC035
     FM280800 34008G16KT P6SM VCSH OVC035=

USA.gov is the U.S. government's official web portal to all federal, state and local government web resources and services.